Terminal Aerodrome Forecast
Issued by NWS Wilmington, OH

Current Version | Previous Version | Text Only | Print | Product List | Glossary Off
Versions: 1 2 3 4 5 6 7 8 9 10 11 12 13 14 15 16 17 18 19

000
FTUS41 KILN 250318 AAC
TAFILN
TAF AMD
KILN 250318Z 2503/2524 21010KT 6SM -SHRA OVC060
     FM250600 27014G24KT P6SM OVC040
     FM251400 26017G27KT P6SM OVC025
     FM251900 27017G27KT P6SM OVC035=

USA.gov is the U.S. government's official web portal to all federal, state and local government web resources and services.